createdAt,value
2023-04-19T00:01:40.056Z,45.03
2023-04-19T00:04:09.665Z,45.34
2023-04-19T00:06:38.459Z,45.37
2023-04-19T00:09:07.254Z,45.65
2023-04-19T00:11:35.172Z,45.80
2023-04-19T00:14:03.793Z,45.62
2023-04-19T00:16:32.520Z,45.83
2023-04-19T00:19:03.066Z,45.53
2023-04-19T00:21:31.639Z,45.64
2023-04-19T00:24:00.042Z,45.55
2023-04-19T00:26:28.584Z,45.40
2023-04-19T00:28:57.087Z,45.32
2023-04-19T00:31:25.703Z,45.42
2023-04-19T00:33:54.444Z,45.21
2023-04-19T00:36:23.693Z,45.08
2023-04-19T00:38:51.572Z,45.18
2023-04-19T00:41:19.452Z,45.31
2023-04-19T00:43:47.316Z,45.21
2023-04-19T00:46:15.584Z,44.97
2023-04-19T00:48:43.565Z,45.17
2023-04-19T00:51:11.963Z,45.20
2023-04-19T00:53:41.257Z,45.24
2023-04-19T00:56:09.238Z,45.12
2023-04-19T00:58:37.291Z,45.45
2023-04-19T01:01:06.461Z,45.43
2023-04-19T01:03:35.039Z,45.37
2023-04-19T01:06:03.309Z,45.47
2023-04-19T01:08:31.243Z,45.95
2023-04-19T01:11:00.502Z,45.65
2023-04-19T01:13:28.663Z,45.65
2023-04-19T01:15:56.561Z,45.75
2023-04-19T01:18:25.700Z,45.66
2023-04-19T01:20:53.834Z,45.68
2023-04-19T01:23:23.084Z,45.79
2023-04-19T01:25:51.102Z,45.83
2023-04-19T01:28:19.030Z,45.81
2023-04-19T01:30:46.897Z,45.93
2023-04-19T01:33:14.787Z,46.02
2023-04-19T01:35:42.715Z,46.05
2023-04-19T01:38:10.589Z,46.21
2023-04-19T01:40:39.831Z,46.28
2023-04-19T01:43:08.138Z,46.19
2023-04-19T01:45:36.283Z,46.20
2023-04-19T01:48:04.736Z,46.45
2023-04-19T01:50:32.775Z,46.37
2023-04-19T01:53:00.908Z,46.38
2023-04-19T01:55:30.108Z,46.62
2023-04-19T01:57:59.317Z,46.50
2023-04-19T02:00:27.331Z,46.60
2023-04-19T02:02:55.331Z,46.66
2023-04-19T02:05:23.311Z,46.68
2023-04-19T02:07:51.182Z,46.96
2023-04-19T02:10:19.117Z,46.88
2023-04-19T02:12:46.998Z,46.92
2023-04-19T02:15:16.233Z,47.14
2023-04-19T02:17:44.131Z,47.01
2023-04-19T02:20:12.245Z,47.14
2023-04-19T02:22:40.242Z,47.16
2023-04-19T02:25:08.701Z,47.46
2023-04-19T02:27:36.562Z,47.61
2023-04-19T02:30:04.585Z,47.68
2023-04-19T02:32:33.847Z,47.95
2023-04-19T02:35:01.729Z,48.15
2023-04-19T02:37:29.576Z,48.25
2023-04-19T02:39:57.436Z,48.24
2023-04-19T02:42:25.376Z,48.39
2023-04-19T02:44:53.255Z,48.46
2023-04-19T02:47:21.282Z,48.52
2023-04-19T02:49:50.518Z,48.68
2023-04-19T02:52:18.327Z,48.71
2023-04-19T02:54:46.328Z,48.91
2023-04-19T02:57:14.253Z,48.78
2023-04-19T02:59:42.126Z,48.88
2023-04-19T03:02:10.048Z,48.88
2023-04-19T03:04:38.246Z,48.92
2023-04-19T03:07:07.483Z,49.14
2023-04-19T03:09:35.357Z,49.37
2023-04-19T03:12:03.381Z,49.45
2023-04-19T03:14:31.245Z,49.61
2023-04-19T03:16:59.093Z,49.64
2023-04-19T03:19:26.977Z,49.77
2023-04-19T03:21:54.840Z,50.05
2023-04-19T03:24:30.202Z,49.98
2023-04-19T03:26:59.351Z,50.29
2023-04-19T03:29:27.288Z,50.24
2023-04-19T03:31:55.210Z,50.40
2023-04-19T03:34:23.024Z,50.38
2023-04-19T03:36:50.956Z,50.54
2023-04-19T03:39:18.861Z,50.88
2023-04-19T03:41:48.101Z,50.66
2023-04-19T03:44:16.239Z,50.73
2023-04-19T03:46:46.470Z,50.85
2023-04-19T03:49:14.699Z,50.83
2023-04-19T03:51:42.621Z,50.84
2023-04-19T03:54:10.471Z,50.95
2023-04-19T03:56:38.376Z,51.07
2023-04-19T03:59:07.598Z,51.04
2023-04-19T04:01:35.584Z,51.35
2023-04-19T04:04:05.117Z,51.14
2023-04-19T04:06:33.338Z,51.39
2023-04-19T04:09:01.639Z,51.49
2023-04-19T04:11:29.559Z,51.64
2023-04-19T04:13:57.502Z,51.48
2023-04-19T04:16:26.773Z,51.66
2023-04-19T04:18:54.722Z,51.70
2023-04-19T04:21:24.249Z,51.77
2023-04-19T04:23:53.256Z,51.97
2023-04-19T04:26:21.918Z,51.88
2023-04-19T04:28:49.824Z,51.97
2023-04-19T04:31:19.061Z,52.21
2023-04-19T04:33:48.301Z,52.36
2023-04-19T04:36:16.224Z,52.27
2023-04-19T04:38:44.115Z,52.46
2023-04-19T04:41:12.890Z,52.46
2023-04-19T04:43:40.797Z,52.50
2023-04-19T04:46:09.113Z,52.67
2023-04-19T04:48:37.085Z,52.66
2023-04-19T04:51:06.412Z,52.79
2023-04-19T04:53:34.300Z,53.01
2023-04-19T04:56:02.235Z,52.91
2023-04-19T04:58:30.534Z,53.22
2023-04-19T05:00:58.413Z,53.13
2023-04-19T05:03:27.209Z,53.15
2023-04-19T05:05:55.158Z,53.09
2023-04-19T05:08:24.375Z,53.37
2023-04-19T05:10:52.210Z,53.18
2023-04-19T05:13:20.077Z,53.36
2023-04-19T05:15:48.105Z,53.47
2023-04-19T05:18:16.020Z,53.46
2023-04-19T05:20:43.909Z,53.53
2023-04-19T05:23:11.752Z,53.56
2023-04-19T05:25:41.850Z,53.32
2023-04-19T05:28:10.048Z,53.66
2023-04-19T05:30:37.958Z,53.81
2023-04-19T05:33:06.312Z,53.85
2023-04-19T05:35:34.557Z,53.69
2023-04-19T05:38:02.937Z,53.88
2023-04-19T05:40:30.968Z,53.93
2023-04-19T05:43:00.222Z,53.74
2023-04-19T05:45:28.103Z,53.69
2023-04-19T05:47:56.367Z,53.89
2023-04-19T05:50:24.341Z,53.70
2023-04-19T05:52:52.253Z,53.95
2023-04-19T05:55:20.161Z,53.83
2023-04-19T05:57:48.261Z,53.94
2023-04-19T06:00:19.008Z,53.80
2023-04-19T06:02:47.126Z,53.73
2023-04-19T06:05:15.182Z,53.79
2023-04-19T06:07:50.631Z,53.71
2023-04-19T06:10:23.460Z,53.58
2023-04-19T06:12:51.378Z,53.79
2023-04-19T06:15:20.933Z,53.39
2023-04-19T06:17:51.061Z,53.36
2023-04-19T06:20:19.109Z,53.35
2023-04-19T06:22:47.043Z,53.28
2023-04-19T06:25:15.165Z,53.38
2023-04-19T06:27:43.044Z,53.24
2023-04-19T06:30:11.287Z,53.09
2023-04-19T06:32:40.625Z,53.01
2023-04-19T06:35:09.445Z,53.07
2023-04-19T06:37:37.539Z,53.18
2023-04-19T06:40:08.813Z,53.22
2023-04-19T06:42:36.659Z,53.49
2023-04-19T06:45:05.253Z,53.60
2023-04-19T06:47:35.444Z,53.67
2023-04-19T06:50:05.389Z,53.58
2023-04-19T06:52:33.292Z,53.57
2023-04-19T06:55:01.445Z,53.51
2023-04-19T06:57:29.373Z,53.56
2023-04-19T06:59:58.293Z,53.25
2023-04-19T07:02:26.387Z,53.38
2023-04-19T07:04:54.407Z,53.26
2023-04-19T07:07:23.968Z,53.33
2023-04-19T07:09:51.852Z,53.14
2023-04-19T07:12:20.266Z,53.15
2023-04-19T07:14:48.208Z,53.00
2023-04-19T07:17:18.237Z,52.81
2023-04-19T07:19:48.816Z,52.65
2023-04-19T07:22:17.073Z,52.77
2023-04-19T07:24:46.344Z,52.35
2023-04-19T07:27:16.544Z,52.28
2023-04-19T07:29:44.391Z,52.28
2023-04-19T07:32:14.051Z,52.38
2023-04-19T07:34:43.592Z,52.27
2023-04-19T07:37:12.704Z,51.90
2023-04-19T07:39:40.746Z,51.70
2023-04-19T07:42:10.139Z,51.90
2023-04-19T07:44:38.710Z,51.55
2023-04-19T07:47:07.191Z,51.18
2023-04-19T07:49:35.288Z,51.03
2023-04-19T07:52:03.482Z,51.05
2023-04-19T07:54:32.301Z,51.03
2023-04-19T07:57:00.269Z,50.75
2023-04-19T07:59:29.575Z,50.69
2023-04-19T08:01:57.561Z,50.62
2023-04-19T08:04:26.136Z,50.59
2023-04-19T08:06:54.509Z,50.34
2023-04-19T08:09:22.722Z,50.28
2023-04-19T08:11:50.981Z,50.25
2023-04-19T08:14:32.238Z,50.20
2023-04-19T08:19:35.915Z,50.08
2023-04-19T08:22:07.754Z,50.30
2023-04-19T08:24:36.338Z,50.04
2023-04-19T08:27:04.872Z,49.86
2023-04-19T08:29:33.725Z,50.33
2023-04-19T08:32:05.201Z,50.09
2023-04-19T08:34:33.335Z,50.03
2023-04-19T08:37:04.523Z,49.53
2023-04-19T08:39:35.233Z,49.66
2023-04-19T08:42:10.509Z,49.91
2023-04-19T08:45:05.697Z,50.29
2023-04-19T08:47:37.211Z,49.93
2023-04-19T08:50:24.025Z,50.06
2023-04-19T08:53:05.656Z,50.04
2023-04-19T08:56:03.524Z,49.76
2023-04-19T09:01:12.859Z,50.05
2023-04-19T09:03:59.470Z,49.99
2023-04-19T09:06:31.311Z,50.45
2023-04-19T09:09:28.857Z,50.48
2023-04-19T09:12:02.328Z,50.71
2023-04-19T09:14:30.332Z,50.78
2023-04-19T09:17:13.372Z,50.44
2023-04-19T09:19:48.264Z,50.40
2023-04-19T09:22:16.216Z,50.56
2023-04-19T09:27:16.150Z,50.88
2023-04-19T09:29:44.562Z,50.68
2023-04-19T09:32:12.461Z,50.79
2023-04-19T09:34:43.533Z,50.69
2023-04-19T09:37:29.670Z,50.71
2023-04-19T09:40:18.193Z,50.68
2023-04-19T09:45:30.058Z,49.67
2023-04-19T09:48:05.975Z,49.30
2023-04-19T09:50:42.354Z,49.16
2023-04-19T09:53:20.213Z,48.86
2023-04-19T09:55:59.672Z,48.80
2023-04-19T09:58:47.018Z,47.45
2023-04-19T10:01:19.288Z,46.90
2023-04-19T10:03:51.494Z,47.00
2023-04-19T10:08:53.152Z,46.80
2023-04-19T10:11:22.754Z,45.94
2023-04-19T10:13:50.941Z,45.46
2023-04-19T10:16:20.233Z,44.93
2023-04-19T10:18:50.219Z,44.75
2023-04-19T10:21:18.822Z,45.07
2023-04-19T10:23:46.698Z,45.30
2023-04-19T10:26:16.243Z,45.90
2023-04-19T10:28:44.152Z,46.23
2023-04-19T10:31:13.108Z,45.95
2023-04-19T10:33:41.399Z,45.57
2023-04-19T10:36:10.572Z,45.64
2023-04-19T10:38:39.664Z,45.41
2023-04-19T10:41:14.532Z,45.18
2023-04-19T10:43:47.180Z,45.16
2023-04-19T10:46:16.733Z,45.03
2023-04-19T10:48:54.635Z,45.05
2023-04-19T10:51:23.791Z,44.77
2023-04-19T10:53:58.807Z,44.61
2023-04-19T10:56:58.020Z,44.41
2023-04-19T10:59:27.784Z,44.78
2023-04-19T11:02:02.147Z,44.00
2023-04-19T11:05:14.521Z,44.05
2023-04-19T11:07:43.043Z,43.77
2023-04-19T11:10:11.797Z,43.56
2023-04-19T11:12:43.618Z,43.64
2023-04-19T11:15:13.025Z,43.10
2023-04-19T11:17:42.635Z,42.99
2023-04-19T11:20:11.764Z,42.95
2023-04-19T11:22:40.411Z,42.81
2023-04-19T11:25:09.862Z,43.29
2023-04-19T11:27:38.057Z,43.48
2023-04-19T11:30:06.889Z,44.07
2023-04-19T11:32:36.396Z,44.71
2023-04-19T11:35:08.912Z,44.83
2023-04-19T11:37:37.242Z,44.14
2023-04-19T11:40:06.480Z,43.10
2023-04-19T11:42:34.559Z,43.10
2023-04-19T11:45:02.651Z,42.23
2023-04-19T11:47:30.901Z,41.28
2023-04-19T11:50:17.341Z,41.18
2023-04-19T11:52:45.430Z,40.66
2023-04-19T11:55:19.894Z,40.11
2023-04-19T11:57:51.040Z,40.07
2023-04-19T12:00:20.134Z,40.04
2023-04-19T12:02:48.291Z,39.36
2023-04-19T12:08:02.436Z,38.88
2023-04-19T12:10:31.387Z,38.67
2023-04-19T12:13:02.281Z,38.42
2023-04-19T12:15:43.698Z,38.25
2023-04-19T12:18:11.941Z,38.87
2023-04-19T12:20:46.799Z,37.87
2023-04-19T12:23:15.912Z,37.42
2023-04-19T12:28:11.734Z,38.29
2023-04-19T12:30:39.811Z,38.60
2023-04-19T12:33:07.913Z,37.72
2023-04-19T12:35:36.081Z,37.38
2023-04-19T12:38:05.367Z,37.49
2023-04-19T12:40:33.742Z,37.17
2023-04-19T12:43:01.678Z,37.01
2023-04-19T12:45:29.669Z,36.40
2023-04-19T12:47:57.574Z,36.31
2023-04-19T12:50:25.483Z,36.25
2023-04-19T12:52:54.087Z,36.24
2023-04-19T12:55:23.717Z,35.77
2023-04-19T12:57:51.636Z,35.91
2023-04-19T13:00:19.690Z,35.42
2023-04-19T13:02:48.489Z,35.45
2023-04-19T13:05:16.612Z,35.57
2023-04-19T13:07:44.505Z,35.18
2023-04-19T13:10:12.533Z,34.99
2023-04-19T13:12:42.165Z,35.26
2023-04-19T13:15:11.372Z,35.72
2023-04-19T13:17:39.261Z,35.11
2023-04-19T13:20:08.623Z,36.56
2023-04-19T13:22:36.645Z,37.00
2023-04-19T13:25:04.950Z,36.15
2023-04-19T13:27:32.888Z,34.85
2023-04-19T13:30:02.217Z,34.63
2023-04-19T13:32:30.450Z,34.60
2023-04-19T13:34:58.454Z,34.14
2023-04-19T13:37:26.547Z,33.66
2023-04-19T13:40:03.946Z,34.05
2023-04-19T13:42:39.036Z,33.96
2023-04-19T13:45:09.884Z,33.42
2023-04-19T13:47:37.879Z,32.62
2023-04-19T13:50:06.365Z,32.56
2023-04-19T13:52:34.318Z,32.69
2023-04-19T13:55:02.163Z,32.55
2023-04-19T13:57:30.085Z,33.04
2023-04-19T13:59:58.003Z,33.00
2023-04-19T14:02:27.421Z,32.23
2023-04-19T14:04:58.934Z,32.35
2023-04-19T14:07:26.848Z,32.77
2023-04-19T14:09:55.098Z,32.86
2023-04-19T14:12:23.491Z,32.23
2023-04-19T14:14:52.309Z,32.23
2023-04-19T14:17:20.647Z,32.40
2023-04-19T14:19:50.174Z,32.51
2023-04-19T14:22:18.400Z,32.65
2023-04-19T14:24:47.004Z,32.65
2023-04-19T14:27:15.307Z,33.00
2023-04-19T14:29:43.464Z,33.93
2023-04-19T14:32:24.951Z,34.08
2023-04-19T14:34:56.048Z,33.43
2023-04-19T14:37:24.632Z,33.51
2023-04-19T14:39:52.698Z,32.86
2023-04-19T14:42:22.586Z,32.51
2023-04-19T14:44:52.204Z,32.43
2023-04-19T14:47:20.118Z,32.59
2023-04-19T14:49:48.044Z,32.48
2023-04-19T14:52:17.529Z,31.91
2023-04-19T14:54:45.688Z,32.13
2023-04-19T14:57:14.217Z,32.53
2023-04-19T14:59:42.167Z,32.38
2023-04-19T15:02:10.885Z,31.98
2023-04-19T15:04:41.057Z,32.47
2023-04-19T15:07:09.365Z,32.57
2023-04-19T15:09:38.889Z,32.85
2023-04-19T15:12:17.590Z,32.57
2023-04-19T15:14:45.940Z,32.42
2023-04-19T15:17:13.816Z,32.43
2023-04-19T15:19:41.853Z,32.84
2023-04-19T15:22:09.952Z,32.43
2023-04-19T15:24:39.342Z,32.42
2023-04-19T15:27:07.248Z,32.53
2023-04-19T15:29:48.295Z,32.31
2023-04-19T15:32:16.305Z,32.48
2023-04-19T15:34:44.279Z,33.48
2023-04-19T15:37:12.183Z,33.90
2023-04-19T15:39:41.462Z,34.21
2023-04-19T15:42:09.359Z,34.87
2023-04-19T15:44:37.225Z,34.60
2023-04-19T15:47:05.455Z,35.22
2023-04-19T15:49:35.642Z,34.53
2023-04-19T15:52:03.585Z,34.66
2023-04-19T15:54:31.576Z,33.94
2023-04-19T15:57:02.586Z,33.05
2023-04-19T15:59:31.540Z,32.97
2023-04-19T16:01:59.727Z,32.21
2023-04-19T16:04:27.808Z,31.76
2023-04-19T16:06:57.759Z,31.84
2023-04-19T16:09:26.419Z,32.33
2023-04-19T16:11:55.313Z,32.12
2023-04-19T16:14:24.844Z,31.79
2023-04-19T16:16:54.401Z,31.98
2023-04-19T16:19:23.627Z,31.97
2023-04-19T16:21:51.496Z,31.58
2023-04-19T16:24:19.439Z,31.96
2023-04-19T16:26:48.385Z,31.65
2023-04-19T16:29:17.114Z,31.55
2023-04-19T16:31:46.639Z,31.71
2023-04-19T16:34:15.142Z,31.98
2023-04-19T16:36:44.828Z,31.54
2023-04-19T16:39:12.965Z,31.65
2023-04-19T16:41:40.928Z,31.52
2023-04-19T16:44:08.975Z,31.23
2023-04-19T16:46:36.949Z,31.41
2023-04-19T16:49:06.501Z,31.00
2023-04-19T16:51:34.385Z,31.42
2023-04-19T16:54:02.339Z,31.44
2023-04-19T16:56:30.592Z,31.50
2023-04-19T16:58:58.505Z,31.82
2023-04-19T17:01:26.467Z,31.39
2023-04-19T17:03:58.893Z,31.50
2023-04-19T17:06:34.427Z,31.81
2023-04-19T17:09:05.007Z,31.47
2023-04-19T17:11:33.330Z,32.30
2023-04-19T17:14:02.766Z,32.10
2023-04-19T17:16:31.259Z,32.55
2023-04-19T17:18:59.353Z,32.62
2023-04-19T17:21:28.883Z,32.60
2023-04-19T17:23:56.824Z,32.61
2023-04-19T17:26:24.927Z,32.79
2023-04-19T17:28:52.989Z,32.60
2023-04-19T17:31:20.988Z,33.32
2023-04-19T17:33:48.968Z,34.14
2023-04-19T17:36:17.034Z,34.72
2023-04-19T17:38:46.461Z,35.27
2023-04-19T17:41:17.401Z,36.04
2023-04-19T17:43:45.639Z,36.87
2023-04-19T17:46:14.294Z,37.91
2023-04-19T17:48:42.207Z,38.63
2023-04-19T17:51:10.116Z,38.93
2023-04-19T17:53:38.021Z,39.07
2023-04-19T17:56:07.508Z,39.41
2023-04-19T17:58:36.487Z,39.82
2023-04-19T18:01:04.641Z,40.39
2023-04-19T18:03:32.812Z,41.12
2023-04-19T18:06:01.128Z,41.07
2023-04-19T18:08:29.086Z,41.36
2023-04-19T18:10:56.981Z,42.08
2023-04-19T18:13:26.628Z,42.31
2023-04-19T18:15:54.694Z,42.38
2023-04-19T18:18:22.724Z,42.53
2023-04-19T18:20:50.802Z,42.88
2023-04-19T18:23:18.709Z,42.84
2023-04-19T18:25:53.332Z,43.49
2023-04-19T18:28:21.315Z,43.70
2023-04-19T18:30:51.435Z,43.85
2023-04-19T18:33:19.311Z,44.03
2023-04-19T18:35:47.237Z,44.19
2023-04-19T18:38:15.282Z,44.53
2023-04-19T18:40:43.292Z,44.62
2023-04-19T18:43:11.222Z,44.65
2023-04-19T18:45:39.151Z,45.26
2023-04-19T18:48:08.638Z,44.92
2023-04-19T18:50:37.775Z,45.17
2023-04-19T18:53:05.754Z,45.65
2023-04-19T18:55:33.815Z,45.51
2023-04-19T18:58:01.850Z,45.83
2023-04-19T19:00:29.721Z,45.94
2023-04-19T19:02:59.937Z,46.27
2023-04-19T19:05:30.416Z,45.88
2023-04-19T19:07:58.693Z,46.10
2023-04-19T19:10:51.782Z,46.55
2023-04-19T19:13:14.587Z,46.19
2023-04-19T19:15:43.721Z,46.68
2023-04-19T19:18:11.692Z,46.83
2023-04-19T19:20:41.353Z,46.64
2023-04-19T19:23:09.278Z,46.56
2023-04-19T19:25:37.197Z,47.01
2023-04-19T19:28:09.705Z,47.10
2023-04-19T19:30:50.150Z,47.17
2023-04-19T19:33:18.514Z,47.23
2023-04-19T19:35:48.067Z,46.92
2023-04-19T19:38:16.564Z,47.15
2023-04-19T19:41:24.706Z,47.05
2023-04-19T19:43:35.438Z,47.09
2023-04-19T19:46:05.031Z,46.86
2023-04-19T19:48:38.507Z,47.17
2023-04-19T19:51:47.546Z,47.17
2023-04-19T19:54:02.506Z,47.04
2023-04-19T19:56:30.505Z,47.12
2023-04-19T19:58:58.379Z,46.98
2023-04-19T20:01:27.204Z,46.95
2023-04-19T20:03:56.106Z,47.30
2023-04-19T20:07:17.264Z,47.31
2023-04-19T20:09:13.963Z,47.00
2023-04-19T20:11:41.961Z,46.73
2023-04-19T20:14:09.835Z,46.52
2023-04-19T20:16:37.767Z,46.47
2023-04-19T20:19:09.653Z,45.71
2023-04-19T20:21:39.110Z,45.38
2023-04-19T20:24:07.832Z,45.50
2023-04-19T20:26:35.831Z,44.75
2023-04-19T20:29:03.683Z,44.51
2023-04-19T20:31:31.666Z,43.97
2023-04-19T20:33:59.579Z,43.26
2023-04-19T20:36:28.428Z,43.24
2023-04-19T20:38:58.696Z,42.88
2023-04-19T20:41:27.214Z,42.69
2023-04-19T20:43:57.221Z,42.50
2023-04-19T20:46:25.177Z,42.04
2023-04-19T20:48:53.104Z,41.53
2023-04-19T20:51:20.983Z,41.49
2023-04-19T20:53:48.887Z,41.10
2023-04-19T20:56:18.345Z,41.22
2023-04-19T20:58:46.265Z,41.01
2023-04-19T21:01:17.281Z,40.79
2023-04-19T21:03:46.351Z,40.82
2023-04-19T21:06:14.431Z,40.37
2023-04-19T21:08:42.973Z,40.20
2023-04-19T21:11:11.411Z,40.20
2023-04-19T21:13:40.911Z,40.08
2023-04-19T21:16:08.952Z,40.02
2023-04-19T21:18:36.906Z,39.87
2023-04-19T21:21:04.930Z,39.79
2023-04-19T21:23:32.826Z,39.79
2023-04-19T21:26:02.552Z,39.23
2023-04-19T21:28:30.467Z,39.46
2023-04-19T21:30:59.881Z,39.30
2023-04-19T21:33:27.792Z,39.06
2023-04-19T21:35:55.850Z,39.11
2023-04-19T21:38:23.761Z,39.15
2023-04-19T21:40:52.011Z,38.95
2023-04-19T21:43:19.900Z,38.96
2023-04-19T21:45:47.853Z,38.97
2023-04-19T21:48:17.156Z,39.45
2023-04-19T21:50:45.042Z,38.95
2023-04-19T21:53:12.952Z,38.92
2023-04-19T21:55:40.873Z,39.22
2023-04-19T21:58:08.720Z,39.32
2023-04-19T22:00:36.684Z,38.79
2023-04-19T22:03:04.776Z,38.57
2023-04-19T22:05:34.192Z,38.70
2023-04-19T22:08:04.649Z,38.45
2023-04-19T22:10:33.819Z,38.55
2023-04-19T22:13:03.640Z,38.33
2023-04-19T22:15:31.576Z,38.37
2023-04-19T22:18:02.971Z,38.43
2023-04-19T22:20:32.084Z,38.58
2023-04-19T22:23:01.330Z,38.66
2023-04-19T22:25:29.245Z,38.87
2023-04-19T22:27:57.134Z,38.90
2023-04-19T22:30:25.012Z,38.86
2023-04-19T22:32:53.005Z,39.05
2023-04-19T22:35:22.731Z,39.16
2023-04-19T22:37:51.215Z,39.14
2023-04-19T22:40:20.442Z,39.05
2023-04-19T22:42:48.302Z,39.24
2023-04-19T22:45:16.157Z,39.21
2023-04-19T22:47:44.082Z,39.16
2023-04-19T22:50:12.577Z,39.09
2023-04-19T22:52:40.946Z,39.15
2023-04-19T22:55:10.203Z,39.11
2023-04-19T22:57:39.442Z,39.32
2023-04-19T23:00:10.679Z,39.43
2023-04-19T23:02:38.837Z,39.69
2023-04-19T23:05:08.488Z,39.60
2023-04-19T23:07:36.455Z,39.61
2023-04-19T23:10:04.708Z,39.51
2023-04-19T23:12:33.608Z,39.72
2023-04-19T23:15:04.004Z,39.68
2023-04-19T23:17:31.919Z,39.75
2023-04-19T23:20:00.214Z,39.76
2023-04-19T23:22:28.108Z,39.77
2023-04-19T23:24:56.099Z,40.08
2023-04-19T23:27:23.972Z,40.32
2023-04-19T23:29:51.868Z,40.12
2023-04-19T23:32:21.356Z,40.41
2023-04-19T23:34:49.274Z,40.46
2023-04-19T23:37:17.130Z,40.42
2023-04-19T23:39:45.025Z,40.80
2023-04-19T23:42:12.863Z,40.80
2023-04-19T23:44:42.220Z,40.70
2023-04-19T23:47:11.758Z,41.10
2023-04-19T23:49:41.087Z,41.14
2023-04-19T23:52:08.930Z,41.31
2023-04-19T23:54:36.761Z,41.18
2023-04-19T23:57:04.786Z,41.54
2023-04-19T23:59:33.207Z,41.85
